sensor_id;sensor_type;location;lat;lon;timestamp;P1;durP1;ratioP1;P2;durP2;ratioP2
39454;SDS011;25155;41.890;23.446;2023-12-28T00:02:21;8.98;;;6.25;;
39454;SDS011;25155;41.890;23.446;2023-12-28T00:04:49;11.20;;;7.00;;
39454;SDS011;25155;41.890;23.446;2023-12-28T00:07:18;10.98;;;6.50;;
39454;SDS011;25155;41.890;23.446;2023-12-28T00:09:45;10.45;;;6.75;;
39454;SDS011;25155;41.890;23.446;2023-12-28T00:12:13;11.00;;;7.22;;
39454;SDS011;25155;41.890;23.446;2023-12-28T00:14:40;10.60;;;6.70;;
39454;SDS011;25155;41.890;23.446;2023-12-28T00:17:07;8.65;;;6.25;;
39454;SDS011;25155;41.890;23.446;2023-12-28T00:19:35;9.30;;;6.32;;
39454;SDS011;25155;41.890;23.446;2023-12-28T00:22:03;11.20;;;7.63;;
39454;SDS011;25155;41.890;23.446;2023-12-28T00:24:32;9.75;;;6.95;;
39454;SDS011;25155;41.890;23.446;2023-12-28T00:26:59;10.25;;;6.50;;
39454;SDS011;25155;41.890;23.446;2023-12-28T00:29:26;10.43;;;7.00;;
39454;SDS011;25155;41.890;23.446;2023-12-28T00:31:54;10.85;;;7.22;;
39454;SDS011;25155;41.890;23.446;2023-12-28T00:34:21;13.50;;;8.00;;
39454;SDS011;25155;41.890;23.446;2023-12-28T00:36:48;13.13;;;8.52;;
39454;SDS011;25155;41.890;23.446;2023-12-28T00:39:15;16.63;;;11.18;;
39454;SDS011;25155;41.890;23.446;2023-12-28T00:41:44;18.67;;;12.45;;
39454;SDS011;25155;41.890;23.446;2023-12-28T00:44:11;18.55;;;11.55;;
39454;SDS011;25155;41.890;23.446;2023-12-28T00:46:38;19.90;;;12.60;;
39454;SDS011;25155;41.890;23.446;2023-12-28T00:49:05;21.33;;;12.57;;
39454;SDS011;25155;41.890;23.446;2023-12-28T00:51:33;18.13;;;11.35;;
39454;SDS011;25155;41.890;23.446;2023-12-28T00:54:01;14.15;;;9.45;;
39454;SDS011;25155;41.890;23.446;2023-12-28T00:56:28;15.40;;;10.05;;
39454;SDS011;25155;41.890;23.446;2023-12-28T00:58:57;12.07;;;7.93;;
39454;SDS011;25155;41.890;23.446;2023-12-28T01:01:24;11.68;;;7.75;;
39454;SDS011;25155;41.890;23.446;2023-12-28T01:03:51;10.02;;;6.68;;
39454;SDS011;25155;41.890;23.446;2023-12-28T01:06:19;9.43;;;6.38;;
39454;SDS011;25155;41.890;23.446;2023-12-28T01:08:46;9.85;;;6.65;;
39454;SDS011;25155;41.890;23.446;2023-12-28T01:11:14;11.10;;;7.05;;
39454;SDS011;25155;41.890;23.446;2023-12-28T01:13:41;13.32;;;7.50;;
39454;SDS011;25155;41.890;23.446;2023-12-28T01:16:09;12.15;;;7.30;;
39454;SDS011;25155;41.890;23.446;2023-12-28T01:18:39;13.52;;;8.77;;
39454;SDS011;25155;41.890;23.446;2023-12-28T01:21:06;12.50;;;7.95;;
39454;SDS011;25155;41.890;23.446;2023-12-28T01:23:33;10.90;;;7.50;;
39454;SDS011;25155;41.890;23.446;2023-12-28T01:26:00;11.10;;;7.07;;
39454;SDS011;25155;41.890;23.446;2023-12-28T01:28:28;9.77;;;6.72;;
39454;SDS011;25155;41.890;23.446;2023-12-28T01:30:55;10.32;;;6.90;;
39454;SDS011;25155;41.890;23.446;2023-12-28T01:33:24;10.63;;;7.50;;
39454;SDS011;25155;41.890;23.446;2023-12-28T01:35:51;12.75;;;9.32;;
39454;SDS011;25155;41.890;23.446;2023-12-28T01:38:18;12.55;;;8.68;;
39454;SDS011;25155;41.890;23.446;2023-12-28T01:40:45;11.63;;;8.65;;
39454;SDS011;25155;41.890;23.446;2023-12-28T01:43:12;11.02;;;7.13;;
39454;SDS011;25155;41.890;23.446;2023-12-28T01:45:40;11.45;;;6.93;;
39454;SDS011;25155;41.890;23.446;2023-12-28T01:48:07;10.75;;;6.90;;
39454;SDS011;25155;41.890;23.446;2023-12-28T01:50:37;8.43;;;6.05;;
39454;SDS011;25155;41.890;23.446;2023-12-28T01:53:04;10.57;;;6.78;;
39454;SDS011;25155;41.890;23.446;2023-12-28T01:55:33;11.75;;;7.60;;
39454;SDS011;25155;41.890;23.446;2023-12-28T01:58:01;9.43;;;6.10;;
39454;SDS011;25155;41.890;23.446;2023-12-28T02:00:28;9.25;;;5.80;;
39454;SDS011;25155;41.890;23.446;2023-12-28T02:02:57;12.52;;;8.60;;
39454;SDS011;25155;41.890;23.446;2023-12-28T02:05:25;9.63;;;6.85;;
39454;SDS011;25155;41.890;23.446;2023-12-28T02:07:54;8.43;;;5.65;;
39454;SDS011;25155;41.890;23.446;2023-12-28T02:10:21;13.40;;;8.85;;
39454;SDS011;25155;41.890;23.446;2023-12-28T02:12:48;13.07;;;7.90;;
39454;SDS011;25155;41.890;23.446;2023-12-28T02:15:18;11.57;;;8.20;;
39454;SDS011;25155;41.890;23.446;2023-12-28T02:17:47;12.68;;;8.63;;
39454;SDS011;25155;41.890;23.446;2023-12-28T02:20:21;15.15;;;9.00;;
39454;SDS011;25155;41.890;23.446;2023-12-28T02:22:49;15.07;;;10.13;;
39454;SDS011;25155;41.890;23.446;2023-12-28T02:25:18;16.83;;;10.93;;
39454;SDS011;25155;41.890;23.446;2023-12-28T02:27:46;15.77;;;9.70;;
39454;SDS011;25155;41.890;23.446;2023-12-28T02:30:16;15.48;;;9.38;;
39454;SDS011;25155;41.890;23.446;2023-12-28T02:32:49;13.73;;;8.93;;
39454;SDS011;25155;41.890;23.446;2023-12-28T02:35:24;13.27;;;8.90;;
39454;SDS011;25155;41.890;23.446;2023-12-28T02:37:56;13.10;;;8.50;;
39454;SDS011;25155;41.890;23.446;2023-12-28T02:40:29;11.68;;;7.95;;
39454;SDS011;25155;41.890;23.446;2023-12-28T02:43:02;13.93;;;9.55;;
39454;SDS011;25155;41.890;23.446;2023-12-28T02:45:29;14.07;;;9.35;;
39454;SDS011;25155;41.890;23.446;2023-12-28T02:47:57;14.35;;;8.95;;
39454;SDS011;25155;41.890;23.446;2023-12-28T02:50:24;12.52;;;8.68;;
39454;SDS011;25155;41.890;23.446;2023-12-28T02:52:51;16.23;;;10.88;;
39454;SDS011;25155;41.890;23.446;2023-12-28T02:55:19;15.43;;;10.23;;
39454;SDS011;25155;41.890;23.446;2023-12-28T02:57:49;14.52;;;9.57;;
39454;SDS011;25155;41.890;23.446;2023-12-28T03:00:17;12.87;;;8.10;;
39454;SDS011;25155;41.890;23.446;2023-12-28T03:02:44;12.60;;;8.65;;
39454;SDS011;25155;41.890;23.446;2023-12-28T03:05:11;12.88;;;8.35;;
39454;SDS011;25155;41.890;23.446;2023-12-28T03:07:38;13.00;;;8.63;;
39454;SDS011;25155;41.890;23.446;2023-12-28T03:10:08;10.63;;;7.55;;
39454;SDS011;25155;41.890;23.446;2023-12-28T03:12:36;12.48;;;8.20;;
39454;SDS011;25155;41.890;23.446;2023-12-28T03:15:06;12.25;;;7.90;;
39454;SDS011;25155;41.890;23.446;2023-12-28T03:17:33;12.52;;;7.90;;
39454;SDS011;25155;41.890;23.446;2023-12-28T03:20:02;11.50;;;8.13;;
39454;SDS011;25155;41.890;23.446;2023-12-28T03:22:29;9.63;;;6.45;;
39454;SDS011;25155;41.890;23.446;2023-12-28T03:24:57;10.55;;;6.93;;
39454;SDS011;25155;41.890;23.446;2023-12-28T03:27:24;10.32;;;7.53;;
39454;SDS011;25155;41.890;23.446;2023-12-28T03:29:51;11.52;;;7.47;;
39454;SDS011;25155;41.890;23.446;2023-12-28T03:32:20;9.88;;;6.90;;
39454;SDS011;25155;41.890;23.446;2023-12-28T03:34:47;8.95;;;5.95;;
39454;SDS011;25155;41.890;23.446;2023-12-28T03:37:14;9.40;;;6.55;;
39454;SDS011;25155;41.890;23.446;2023-12-28T03:39:41;10.80;;;6.75;;
39454;SDS011;25155;41.890;23.446;2023-12-28T03:42:09;9.68;;;7.03;;
39454;SDS011;25155;41.890;23.446;2023-12-28T03:44:36;9.32;;;6.35;;
39454;SDS011;25155;41.890;23.446;2023-12-28T03:47:03;9.45;;;6.40;;
39454;SDS011;25155;41.890;23.446;2023-12-28T03:49:32;9.88;;;6.63;;
39454;SDS011;25155;41.890;23.446;2023-12-28T03:51:59;11.13;;;7.25;;
39454;SDS011;25155;41.890;23.446;2023-12-28T03:54:26;13.00;;;7.43;;
39454;SDS011;25155;41.890;23.446;2023-12-28T03:56:53;12.45;;;8.50;;
39454;SDS011;25155;41.890;23.446;2023-12-28T03:59:20;12.80;;;9.15;;
39454;SDS011;25155;41.890;23.446;2023-12-28T04:01:48;14.52;;;10.15;;
39454;SDS011;25155;41.890;23.446;2023-12-28T04:04:15;13.70;;;9.60;;
39454;SDS011;25155;41.890;23.446;2023-12-28T04:06:44;15.82;;;11.07;;
39454;SDS011;25155;41.890;23.446;2023-12-28T04:09:11;14.93;;;9.68;;
39454;SDS011;25155;41.890;23.446;2023-12-28T04:11:38;12.00;;;7.97;;
39454;SDS011;25155;41.890;23.446;2023-12-28T04:14:05;12.93;;;8.20;;
39454;SDS011;25155;41.890;23.446;2023-12-28T04:16:33;10.25;;;6.72;;
39454;SDS011;25155;41.890;23.446;2023-12-28T04:19:00;10.88;;;7.18;;
39454;SDS011;25155;41.890;23.446;2023-12-28T04:21:27;11.70;;;7.93;;
39454;SDS011;25155;41.890;23.446;2023-12-28T04:23:56;17.88;;;10.80;;
39454;SDS011;25155;41.890;23.446;2023-12-28T04:26:24;24.73;;;14.75;;
39454;SDS011;25155;41.890;23.446;2023-12-28T04:28:51;30.30;;;18.60;;
39454;SDS011;25155;41.890;23.446;2023-12-28T04:31:18;47.60;;;26.58;;
39454;SDS011;25155;41.890;23.446;2023-12-28T04:33:45;45.78;;;26.48;;
39454;SDS011;25155;41.890;23.446;2023-12-28T04:36:13;40.20;;;23.60;;
39454;SDS011;25155;41.890;23.446;2023-12-28T04:38:40;29.75;;;18.08;;
39454;SDS011;25155;41.890;23.446;2023-12-28T04:41:09;23.17;;;14.70;;
39454;SDS011;25155;41.890;23.446;2023-12-28T04:43:36;23.88;;;14.70;;
39454;SDS011;25155;41.890;23.446;2023-12-28T04:46:05;26.00;;;15.32;;
39454;SDS011;25155;41.890;23.446;2023-12-28T04:48:32;30.63;;;16.70;;
39454;SDS011;25155;41.890;23.446;2023-12-28T04:51:02;32.15;;;18.73;;
39454;SDS011;25155;41.890;23.446;2023-12-28T04:53:29;35.85;;;21.02;;
39454;SDS011;25155;41.890;23.446;2023-12-28T04:55:58;39.53;;;21.73;;
39454;SDS011;25155;41.890;23.446;2023-12-28T04:58:27;34.20;;;19.80;;
39454;SDS011;25155;41.890;23.446;2023-12-28T05:00:54;31.80;;;18.75;;
39454;SDS011;25155;41.890;23.446;2023-12-28T05:03:21;32.10;;;18.95;;
39454;SDS011;25155;41.890;23.446;2023-12-28T05:05:48;33.58;;;19.15;;
39454;SDS011;25155;41.890;23.446;2023-12-28T05:08:15;31.10;;;17.35;;
39454;SDS011;25155;41.890;23.446;2023-12-28T05:10:42;34.58;;;20.83;;
39454;SDS011;25155;41.890;23.446;2023-12-28T05:13:10;35.13;;;21.52;;
39454;SDS011;25155;41.890;23.446;2023-12-28T05:15:39;31.52;;;19.70;;
39454;SDS011;25155;41.890;23.446;2023-12-28T05:18:06;30.20;;;18.55;;
39454;SDS011;25155;41.890;23.446;2023-12-28T05:20:34;29.02;;;17.90;;
39454;SDS011;25155;41.890;23.446;2023-12-28T05:23:01;23.83;;;14.68;;
39454;SDS011;25155;41.890;23.446;2023-12-28T05:25:29;18.40;;;13.02;;
39454;SDS011;25155;41.890;23.446;2023-12-28T05:27:56;22.00;;;13.70;;
39454;SDS011;25155;41.890;23.446;2023-12-28T05:30:24;30.75;;;17.83;;
39454;SDS011;25155;41.890;23.446;2023-12-28T05:32:52;29.58;;;18.42;;
39454;SDS011;25155;41.890;23.446;2023-12-28T05:35:19;27.17;;;16.10;;
39454;SDS011;25155;41.890;23.446;2023-12-28T05:37:47;26.05;;;16.23;;
39454;SDS011;25155;41.890;23.446;2023-12-28T05:40:14;25.08;;;15.88;;
39454;SDS011;25155;41.890;23.446;2023-12-28T05:42:41;18.63;;;12.18;;
39454;SDS011;25155;41.890;23.446;2023-12-28T05:45:09;17.38;;;11.25;;
39454;SDS011;25155;41.890;23.446;2023-12-28T05:47:37;24.70;;;14.65;;
39454;SDS011;25155;41.890;23.446;2023-12-28T05:50:06;28.83;;;17.48;;
39454;SDS011;25155;41.890;23.446;2023-12-28T05:52:34;42.65;;;23.50;;
39454;SDS011;25155;41.890;23.446;2023-12-28T05:55:01;50.47;;;28.27;;
39454;SDS011;25155;41.890;23.446;2023-12-28T05:57:29;56.22;;;32.80;;
39454;SDS011;25155;41.890;23.446;2023-12-28T05:59:57;67.30;;;37.05;;
39454;SDS011;25155;41.890;23.446;2023-12-28T06:02:24;61.25;;;33.72;;
39454;SDS011;25155;41.890;23.446;2023-12-28T06:04:52;62.63;;;34.92;;
39454;SDS011;25155;41.890;23.446;2023-12-28T06:07:20;55.50;;;32.20;;
39454;SDS011;25155;41.890;23.446;2023-12-28T06:09:48;70.65;;;41.35;;
39454;SDS011;25155;41.890;23.446;2023-12-28T06:12:15;66.97;;;39.78;;
39454;SDS011;25155;41.890;23.446;2023-12-28T06:14:42;71.90;;;40.92;;
39454;SDS011;25155;41.890;23.446;2023-12-28T06:17:09;72.25;;;43.30;;
39454;SDS011;25155;41.890;23.446;2023-12-28T06:19:37;115.15;;;65.88;;
39454;SDS011;25155;41.890;23.446;2023-12-28T06:22:04;100.10;;;56.60;;
39454;SDS011;25155;41.890;23.446;2023-12-28T06:24:33;115.15;;;64.53;;
39454;SDS011;25155;41.890;23.446;2023-12-28T06:27:04;88.40;;;50.65;;
39454;SDS011;25155;41.890;23.446;2023-12-28T06:29:32;119.18;;;67.15;;
39454;SDS011;25155;41.890;23.446;2023-12-28T06:31:59;127.50;;;74.95;;
39454;SDS011;25155;41.890;23.446;2023-12-28T06:34:27;109.20;;;62.85;;
39454;SDS011;25155;41.890;23.446;2023-12-28T06:36:54;90.45;;;52.75;;
39454;SDS011;25155;41.890;23.446;2023-12-28T06:39:21;124.20;;;73.80;;
39454;SDS011;25155;41.890;23.446;2023-12-28T06:41:51;114.40;;;66.00;;
39454;SDS011;25155;41.890;23.446;2023-12-28T06:44:18;97.32;;;55.88;;
39454;SDS011;25155;41.890;23.446;2023-12-28T06:46:45;98.13;;;58.40;;
39454;SDS011;25155;41.890;23.446;2023-12-28T06:49:12;93.40;;;55.72;;
39454;SDS011;25155;41.890;23.446;2023-12-28T06:51:40;97.57;;;58.50;;
39454;SDS011;25155;41.890;23.446;2023-12-28T06:54:08;133.38;;;83.22;;
39454;SDS011;25155;41.890;23.446;2023-12-28T06:56:35;132.05;;;81.50;;
39454;SDS011;25155;41.890;23.446;2023-12-28T06:59:04;108.65;;;67.38;;
39454;SDS011;25155;41.890;23.446;2023-12-28T07:01:31;105.38;;;64.95;;
39454;SDS011;25155;41.890;23.446;2023-12-28T07:03:58;120.88;;;73.38;;
39454;SDS011;25155;41.890;23.446;2023-12-28T07:06:25;96.95;;;60.63;;
39454;SDS011;25155;41.890;23.446;2023-12-28T07:08:54;140.52;;;90.18;;
39454;SDS011;25155;41.890;23.446;2023-12-28T07:11:21;102.07;;;62.83;;
39454;SDS011;25155;41.890;23.446;2023-12-28T07:13:48;87.70;;;55.30;;
39454;SDS011;25155;41.890;23.446;2023-12-28T07:16:16;66.80;;;43.08;;
39454;SDS011;25155;41.890;23.446;2023-12-28T07:18:44;70.90;;;46.80;;
39454;SDS011;25155;41.890;23.446;2023-12-28T07:21:12;73.05;;;44.63;;
39454;SDS011;25155;41.890;23.446;2023-12-28T07:23:39;78.88;;;50.45;;
39454;SDS011;25155;41.890;23.446;2023-12-28T07:26:06;138.93;;;82.18;;
39454;SDS011;25155;41.890;23.446;2023-12-28T07:28:33;135.88;;;85.05;;
39454;SDS011;25155;41.890;23.446;2023-12-28T07:31:00;110.18;;;67.20;;
39454;SDS011;25155;41.890;23.446;2023-12-28T07:33:29;72.65;;;46.20;;
39454;SDS011;25155;41.890;23.446;2023-12-28T07:35:56;65.38;;;40.78;;
39454;SDS011;25155;41.890;23.446;2023-12-28T07:38:25;43.05;;;29.08;;
39454;SDS011;25155;41.890;23.446;2023-12-28T07:40:52;39.33;;;24.08;;
39454;SDS011;25155;41.890;23.446;2023-12-28T07:43:19;33.28;;;22.38;;
39454;SDS011;25155;41.890;23.446;2023-12-28T07:45:46;44.15;;;28.60;;
39454;SDS011;25155;41.890;23.446;2023-12-28T07:48:13;94.20;;;61.55;;
39454;SDS011;25155;41.890;23.446;2023-12-28T07:50:42;113.10;;;73.13;;
39454;SDS011;25155;41.890;23.446;2023-12-28T07:53:09;134.07;;;87.72;;
39454;SDS011;25155;41.890;23.446;2023-12-28T07:55:36;107.07;;;70.07;;
39454;SDS011;25155;41.890;23.446;2023-12-28T07:58:04;104.97;;;69.05;;
39454;SDS011;25155;41.890;23.446;2023-12-28T08:00:32;86.95;;;56.55;;
39454;SDS011;25155;41.890;23.446;2023-12-28T08:03:00;90.10;;;58.95;;
39454;SDS011;25155;41.890;23.446;2023-12-28T08:05:27;80.32;;;50.42;;
39454;SDS011;25155;41.890;23.446;2023-12-28T08:07:56;62.00;;;40.33;;
39454;SDS011;25155;41.890;23.446;2023-12-28T08:10:23;85.53;;;57.45;;
39454;SDS011;25155;41.890;23.446;2023-12-28T08:12:50;83.30;;;53.60;;
39454;SDS011;25155;41.890;23.446;2023-12-28T08:15:18;97.38;;;65.25;;
39454;SDS011;25155;41.890;23.446;2023-12-28T08:17:45;104.18;;;69.32;;
39454;SDS011;25155;41.890;23.446;2023-12-28T08:20:12;103.72;;;68.30;;
39454;SDS011;25155;41.890;23.446;2023-12-28T08:22:39;89.25;;;57.35;;
39454;SDS011;25155;41.890;23.446;2023-12-28T08:25:08;80.63;;;52.40;;
39454;SDS011;25155;41.890;23.446;2023-12-28T08:27:35;68.05;;;43.95;;
39454;SDS011;25155;41.890;23.446;2023-12-28T08:30:03;109.18;;;74.18;;
39454;SDS011;25155;41.890;23.446;2023-12-28T08:32:32;82.35;;;55.90;;
39454;SDS011;25155;41.890;23.446;2023-12-28T08:34:59;120.15;;;85.28;;
39454;SDS011;25155;41.890;23.446;2023-12-28T08:37:27;117.25;;;81.75;;
39454;SDS011;25155;41.890;23.446;2023-12-28T08:39:54;124.85;;;83.30;;
39454;SDS011;25155;41.890;23.446;2023-12-28T08:42:23;132.07;;;90.30;;
39454;SDS011;25155;41.890;23.446;2023-12-28T08:44:50;108.82;;;72.28;;
39454;SDS011;25155;41.890;23.446;2023-12-28T08:47:18;83.15;;;54.45;;
39454;SDS011;25155;41.890;23.446;2023-12-28T08:49:45;70.40;;;45.75;;
39454;SDS011;25155;41.890;23.446;2023-12-28T08:52:12;71.15;;;47.65;;
39454;SDS011;25155;41.890;23.446;2023-12-28T08:54:40;67.93;;;45.38;;
39454;SDS011;25155;41.890;23.446;2023-12-28T08:57:07;62.33;;;42.08;;
39454;SDS011;25155;41.890;23.446;2023-12-28T08:59:37;48.60;;;34.40;;
39454;SDS011;25155;41.890;23.446;2023-12-28T09:02:04;62.00;;;42.33;;
39454;SDS011;25155;41.890;23.446;2023-12-28T09:04:33;68.18;;;45.85;;
39454;SDS011;25155;41.890;23.446;2023-12-28T09:07:00;65.38;;;45.33;;
39454;SDS011;25155;41.890;23.446;2023-12-28T09:09:27;61.70;;;42.40;;
39454;SDS011;25155;41.890;23.446;2023-12-28T09:11:56;68.90;;;47.30;;
39454;SDS011;25155;41.890;23.446;2023-12-28T09:14:23;62.60;;;42.75;;
39454;SDS011;25155;41.890;23.446;2023-12-28T09:16:52;58.35;;;40.88;;
39454;SDS011;25155;41.890;23.446;2023-12-28T09:19:20;65.07;;;42.85;;
39454;SDS011;25155;41.890;23.446;2023-12-28T09:21:47;68.53;;;47.30;;
39454;SDS011;25155;41.890;23.446;2023-12-28T09:24:14;73.07;;;49.42;;
39454;SDS011;25155;41.890;23.446;2023-12-28T09:26:44;66.47;;;44.35;;
39454;SDS011;25155;41.890;23.446;2023-12-28T09:29:11;69.68;;;46.88;;
39454;SDS011;25155;41.890;23.446;2023-12-28T09:31:39;77.28;;;52.42;;
39454;SDS011;25155;41.890;23.446;2023-12-28T09:34:08;71.00;;;47.40;;
39454;SDS011;25155;41.890;23.446;2023-12-28T09:36:35;94.07;;;62.13;;
39454;SDS011;25155;41.890;23.446;2023-12-28T09:39:03;77.13;;;50.90;;
39454;SDS011;25155;41.890;23.446;2023-12-28T09:41:33;79.38;;;53.00;;
39454;SDS011;25155;41.890;23.446;2023-12-28T09:44:07;69.93;;;47.25;;
39454;SDS011;25155;41.890;23.446;2023-12-28T09:46:38;70.97;;;47.70;;
39454;SDS011;25155;41.890;23.446;2023-12-28T09:49:09;69.50;;;48.42;;
39454;SDS011;25155;41.890;23.446;2023-12-28T09:51:37;72.28;;;49.47;;
39454;SDS011;25155;41.890;23.446;2023-12-28T09:54:05;66.78;;;45.60;;
39454;SDS011;25155;41.890;23.446;2023-12-28T09:56:32;68.60;;;47.35;;
39454;SDS011;25155;41.890;23.446;2023-12-28T09:59:00;60.38;;;45.20;;
39454;SDS011;25155;41.890;23.446;2023-12-28T10:01:31;55.37;;;39.83;;
39454;SDS011;25155;41.890;23.446;2023-12-28T10:04:01;49.10;;;36.17;;
39454;SDS011;25155;41.890;23.446;2023-12-28T10:06:31;57.58;;;38.88;;
39454;SDS011;25155;41.890;23.446;2023-12-28T10:08:58;48.65;;;35.15;;
39454;SDS011;25155;41.890;23.446;2023-12-28T10:11:26;58.83;;;39.58;;
39454;SDS011;25155;41.890;23.446;2023-12-28T10:13:53;61.10;;;41.50;;
39454;SDS011;25155;41.890;23.446;2023-12-28T10:16:20;61.33;;;44.28;;
39454;SDS011;25155;41.890;23.446;2023-12-28T10:18:48;60.65;;;43.95;;
39454;SDS011;25155;41.890;23.446;2023-12-28T10:21:15;62.03;;;43.10;;
39454;SDS011;25155;41.890;23.446;2023-12-28T10:23:44;49.70;;;36.35;;
39454;SDS011;25155;41.890;23.446;2023-12-28T10:26:11;50.20;;;35.38;;
39454;SDS011;25155;41.890;23.446;2023-12-28T10:28:39;51.53;;;37.00;;
39454;SDS011;25155;41.890;23.446;2023-12-28T10:31:08;38.03;;;27.02;;
39454;SDS011;25155;41.890;23.446;2023-12-28T10:33:35;35.72;;;25.60;;
39454;SDS011;25155;41.890;23.446;2023-12-28T10:36:04;43.70;;;31.23;;
39454;SDS011;25155;41.890;23.446;2023-12-28T10:38:34;42.05;;;30.77;;
39454;SDS011;25155;41.890;23.446;2023-12-28T10:41:04;50.55;;;36.38;;
39454;SDS011;25155;41.890;23.446;2023-12-28T10:43:36;48.53;;;35.03;;
39454;SDS011;25155;41.890;23.446;2023-12-28T10:46:12;39.53;;;29.50;;
39454;SDS011;25155;41.890;23.446;2023-12-28T10:48:48;43.58;;;32.47;;
39454;SDS011;25155;41.890;23.446;2023-12-28T10:51:18;38.17;;;27.08;;
39454;SDS011;25155;41.890;23.446;2023-12-28T10:53:52;42.08;;;28.50;;
39454;SDS011;25155;41.890;23.446;2023-12-28T10:56:32;33.92;;;24.75;;
39454;SDS011;25155;41.890;23.446;2023-12-28T10:59:05;29.88;;;21.33;;
39454;SDS011;25155;41.890;23.446;2023-12-28T11:01:43;31.95;;;23.55;;
39454;SDS011;25155;41.890;23.446;2023-12-28T11:04:17;31.98;;;23.10;;
39454;SDS011;25155;41.890;23.446;2023-12-28T11:06:51;31.15;;;23.15;;
39454;SDS011;25155;41.890;23.446;2023-12-28T11:09:20;33.63;;;22.98;;
39454;SDS011;25155;41.890;23.446;2023-12-28T11:11:50;30.55;;;20.65;;
39454;SDS011;25155;41.890;23.446;2023-12-28T11:14:20;27.65;;;20.33;;
39454;SDS011;25155;41.890;23.446;2023-12-28T11:16:48;30.50;;;22.27;;
39454;SDS011;25155;41.890;23.446;2023-12-28T11:19:17;38.75;;;26.73;;
39454;SDS011;25155;41.890;23.446;2023-12-28T11:21:47;32.10;;;21.77;;
39454;SDS011;25155;41.890;23.446;2023-12-28T11:24:15;32.63;;;22.35;;
39454;SDS011;25155;41.890;23.446;2023-12-28T11:26:43;32.92;;;22.83;;
39454;SDS011;25155;41.890;23.446;2023-12-28T11:29:18;34.50;;;22.95;;
39454;SDS011;25155;41.890;23.446;2023-12-28T11:31:50;33.17;;;24.45;;
39454;SDS011;25155;41.890;23.446;2023-12-28T11:36:46;29.48;;;21.67;;
39454;SDS011;25155;41.890;23.446;2023-12-28T11:39:20;25.65;;;18.92;;
39454;SDS011;25155;41.890;23.446;2023-12-28T11:41:59;30.00;;;21.27;;
39454;SDS011;25155;41.890;23.446;2023-12-28T11:44:29;27.02;;;19.15;;
39454;SDS011;25155;41.890;23.446;2023-12-28T11:46:57;30.17;;;20.38;;
39454;SDS011;25155;41.890;23.446;2023-12-28T11:49:27;25.50;;;18.35;;
39454;SDS011;25155;41.890;23.446;2023-12-28T11:51:55;29.65;;;21.75;;
39454;SDS011;25155;41.890;23.446;2023-12-28T11:54:24;28.45;;;21.20;;
39454;SDS011;25155;41.890;23.446;2023-12-28T11:56:52;27.80;;;19.80;;
39454;SDS011;25155;41.890;23.446;2023-12-28T11:59:19;25.38;;;19.10;;
39454;SDS011;25155;41.890;23.446;2023-12-28T12:01:51;25.88;;;19.40;;
39454;SDS011;25155;41.890;23.446;2023-12-28T12:04:20;29.35;;;21.52;;
39454;SDS011;25155;41.890;23.446;2023-12-28T12:06:48;24.75;;;17.90;;
39454;SDS011;25155;41.890;23.446;2023-12-28T12:09:16;24.55;;;17.25;;
39454;SDS011;25155;41.890;23.446;2023-12-28T12:11:49;19.58;;;14.52;;
39454;SDS011;25155;41.890;23.446;2023-12-28T12:14:16;17.95;;;12.68;;
39454;SDS011;25155;41.890;23.446;2023-12-28T12:16:43;15.50;;;11.48;;
39454;SDS011;25155;41.890;23.446;2023-12-28T12:19:12;12.60;;;9.80;;
39454;SDS011;25155;41.890;23.446;2023-12-28T12:21:39;15.68;;;11.30;;
39454;SDS011;25155;41.890;23.446;2023-12-28T12:24:06;20.23;;;13.60;;
39454;SDS011;25155;41.890;23.446;2023-12-28T12:26:33;16.40;;;12.18;;
39454;SDS011;25155;41.890;23.446;2023-12-28T12:29:01;19.10;;;13.68;;
39454;SDS011;25155;41.890;23.446;2023-12-28T12:31:29;17.08;;;12.77;;
39454;SDS011;25155;41.890;23.446;2023-12-28T12:33:56;19.73;;;14.27;;
39454;SDS011;25155;41.890;23.446;2023-12-28T12:36:25;27.77;;;19.40;;
39454;SDS011;25155;41.890;23.446;2023-12-28T12:38:52;21.10;;;15.82;;
39454;SDS011;25155;41.890;23.446;2023-12-28T12:41:19;25.00;;;18.52;;
39454;SDS011;25155;41.890;23.446;2023-12-28T12:43:46;21.30;;;16.08;;
39454;SDS011;25155;41.890;23.446;2023-12-28T12:46:14;24.17;;;16.10;;
39454;SDS011;25155;41.890;23.446;2023-12-28T12:48:42;21.67;;;15.85;;
39454;SDS011;25155;41.890;23.446;2023-12-28T12:51:09;22.05;;;15.98;;
39454;SDS011;25155;41.890;23.446;2023-12-28T12:53:37;16.40;;;11.40;;
39454;SDS011;25155;41.890;23.446;2023-12-28T12:56:06;11.40;;;8.30;;
39454;SDS011;25155;41.890;23.446;2023-12-28T12:58:34;10.70;;;7.72;;
39454;SDS011;25155;41.890;23.446;2023-12-28T13:01:01;9.48;;;6.50;;
39454;SDS011;25155;41.890;23.446;2023-12-28T13:03:28;7.13;;;5.05;;
39454;SDS011;25155;41.890;23.446;2023-12-28T13:05:56;11.25;;;6.78;;
39454;SDS011;25155;41.890;23.446;2023-12-28T13:08:23;8.70;;;5.57;;
39454;SDS011;25155;41.890;23.446;2023-12-28T13:10:52;8.18;;;5.32;;
39454;SDS011;25155;41.890;23.446;2023-12-28T13:13:19;8.50;;;5.78;;
39454;SDS011;25155;41.890;23.446;2023-12-28T13:15:47;8.40;;;5.60;;
39454;SDS011;25155;41.890;23.446;2023-12-28T13:18:15;12.07;;;8.48;;
39454;SDS011;25155;41.890;23.446;2023-12-28T13:20:42;8.13;;;5.78;;
39454;SDS011;25155;41.890;23.446;2023-12-28T13:23:10;6.60;;;4.47;;
39454;SDS011;25155;41.890;23.446;2023-12-28T13:25:37;4.72;;;3.22;;
39454;SDS011;25155;41.890;23.446;2023-12-28T13:28:06;4.60;;;2.90;;
39454;SDS011;25155;41.890;23.446;2023-12-28T13:30:33;5.43;;;3.40;;
39454;SDS011;25155;41.890;23.446;2023-12-28T13:33:02;4.35;;;2.72;;
39454;SDS011;25155;41.890;23.446;2023-12-28T13:35:30;5.00;;;3.22;;
39454;SDS011;25155;41.890;23.446;2023-12-28T13:37:58;5.25;;;3.40;;
39454;SDS011;25155;41.890;23.446;2023-12-28T13:40:26;5.80;;;3.40;;
39454;SDS011;25155;41.890;23.446;2023-12-28T13:42:54;5.40;;;3.45;;
39454;SDS011;25155;41.890;23.446;2023-12-28T13:45:22;5.22;;;3.20;;
39454;SDS011;25155;41.890;23.446;2023-12-28T13:47:49;5.97;;;3.72;;
39454;SDS011;25155;41.890;23.446;2023-12-28T13:50:16;5.38;;;3.30;;
39454;SDS011;25155;41.890;23.446;2023-12-28T13:52:45;5.38;;;3.20;;
39454;SDS011;25155;41.890;23.446;2023-12-28T13:55:12;4.80;;;3.20;;
39454;SDS011;25155;41.890;23.446;2023-12-28T13:57:39;5.35;;;2.90;;
39454;SDS011;25155;41.890;23.446;2023-12-28T14:00:07;6.32;;;3.60;;
39454;SDS011;25155;41.890;23.446;2023-12-28T14:02:36;5.40;;;3.50;;
39454;SDS011;25155;41.890;23.446;2023-12-28T14:05:05;4.82;;;3.17;;
39454;SDS011;25155;41.890;23.446;2023-12-28T14:07:32;4.95;;;3.05;;
39454;SDS011;25155;41.890;23.446;2023-12-28T14:10:00;4.88;;;3.30;;
39454;SDS011;25155;41.890;23.446;2023-12-28T14:12:27;5.47;;;3.13;;
39454;SDS011;25155;41.890;23.446;2023-12-28T14:14:54;5.45;;;3.60;;
39454;SDS011;25155;41.890;23.446;2023-12-28T14:17:21;5.15;;;3.47;;
39454;SDS011;25155;41.890;23.446;2023-12-28T14:19:50;4.93;;;3.38;;
39454;SDS011;25155;41.890;23.446;2023-12-28T14:22:17;5.05;;;3.30;;